sensor_id;sensor_type;location;lat;lon;timestamp;P1;durP1;ratioP1;P2;durP2;ratioP2
57846;SDS011;43675;50.030;21.952;2023-05-07T00:00:55;39.80;;;35.60;;
57846;SDS011;43675;50.030;21.952;2023-05-07T00:03:22;38.40;;;34.50;;
57846;SDS011;43675;50.030;21.952;2023-05-07T00:05:48;39.00;;;35.10;;
57846;SDS011;43675;50.030;21.952;2023-05-07T00:08:15;38.50;;;34.50;;
57846;SDS011;43675;50.030;21.952;2023-05-07T00:10:41;36.30;;;32.70;;
57846;SDS011;43675;50.030;21.952;2023-05-07T00:13:08;35.70;;;32.10;;
57846;SDS011;43675;50.030;21.952;2023-05-07T00:15:34;36.00;;;32.30;;
57846;SDS011;43675;50.030;21.952;2023-05-07T00:18:01;35.20;;;31.60;;
57846;SDS011;43675;50.030;21.952;2023-05-07T00:20:27;35.30;;;31.80;;
57846;SDS011;43675;50.030;21.952;2023-05-07T00:22:54;37.40;;;33.40;;
57846;SDS011;43675;50.030;21.952;2023-05-07T00:25:21;38.80;;;32.50;;
57846;SDS011;43675;50.030;21.952;2023-05-07T00:27:47;36.90;;;33.40;;
57846;SDS011;43675;50.030;21.952;2023-05-07T00:30:14;39.10;;;35.20;;
57846;SDS011;43675;50.030;21.952;2023-05-07T00:32:40;38.10;;;34.00;;
57846;SDS011;43675;50.030;21.952;2023-05-07T00:35:07;36.50;;;32.90;;
57846;SDS011;43675;50.030;21.952;2023-05-07T00:37:34;37.20;;;33.30;;
57846;SDS011;43675;50.030;21.952;2023-05-07T00:40:01;35.30;;;31.70;;
57846;SDS011;43675;50.030;21.952;2023-05-07T00:42:27;36.80;;;31.60;;
57846;SDS011;43675;50.030;21.952;2023-05-07T00:44:54;35.60;;;31.90;;
57846;SDS011;43675;50.030;21.952;2023-05-07T00:47:20;34.40;;;30.80;;
57846;SDS011;43675;50.030;21.952;2023-05-07T00:49:47;34.20;;;30.30;;
57846;SDS011;43675;50.030;21.952;2023-05-07T00:52:14;35.60;;;32.00;;
57846;SDS011;43675;50.030;21.952;2023-05-07T00:54:43;34.60;;;31.00;;
57846;SDS011;43675;50.030;21.952;2023-05-07T00:57:10;35.40;;;31.90;;
57846;SDS011;43675;50.030;21.952;2023-05-07T00:59:37;36.80;;;33.00;;
57846;SDS011;43675;50.030;21.952;2023-05-07T01:02:04;34.70;;;31.20;;
57846;SDS011;43675;50.030;21.952;2023-05-07T01:04:31;34.70;;;31.10;;
57846;SDS011;43675;50.030;21.952;2023-05-07T01:06:58;34.30;;;30.70;;
57846;SDS011;43675;50.030;21.952;2023-05-07T01:09:25;33.30;;;29.90;;
57846;SDS011;43675;50.030;21.952;2023-05-07T01:11:53;35.30;;;31.70;;
57846;SDS011;43675;50.030;21.952;2023-05-07T01:14:21;36.10;;;32.20;;
57846;SDS011;43675;50.030;21.952;2023-05-07T01:16:48;35.20;;;31.60;;
57846;SDS011;43675;50.030;21.952;2023-05-07T01:19:15;35.40;;;31.80;;
57846;SDS011;43675;50.030;21.952;2023-05-07T01:21:47;37.50;;;33.60;;
57846;SDS011;43675;50.030;21.952;2023-05-07T01:24:15;37.20;;;32.90;;
57846;SDS011;43675;50.030;21.952;2023-05-07T01:26:42;36.60;;;32.80;;
57846;SDS011;43675;50.030;21.952;2023-05-07T01:29:10;34.40;;;30.90;;
57846;SDS011;43675;50.030;21.952;2023-05-07T01:31:37;34.20;;;30.60;;
57846;SDS011;43675;50.030;21.952;2023-05-07T01:34:04;36.10;;;30.60;;
57846;SDS011;43675;50.030;21.952;2023-05-07T01:36:34;37.10;;;32.80;;
57846;SDS011;43675;50.030;21.952;2023-05-07T01:39:05;40.20;;;34.40;;
57846;SDS011;43675;50.030;21.952;2023-05-07T01:41:32;39.00;;;34.20;;
57846;SDS011;43675;50.030;21.952;2023-05-07T01:43:59;41.60;;;33.80;;
57846;SDS011;43675;50.030;21.952;2023-05-07T01:46:27;44.90;;;35.00;;
57846;SDS011;43675;50.030;21.952;2023-05-07T01:48:54;47.50;;;37.00;;
57846;SDS011;43675;50.030;21.952;2023-05-07T01:51:21;48.30;;;38.20;;
57846;SDS011;43675;50.030;21.952;2023-05-07T01:53:48;41.20;;;35.20;;
57846;SDS011;43675;50.030;21.952;2023-05-07T01:56:15;44.40;;;35.50;;
57846;SDS011;43675;50.030;21.952;2023-05-07T01:58:41;40.10;;;35.00;;
57846;SDS011;43675;50.030;21.952;2023-05-07T02:01:08;37.10;;;33.30;;
57846;SDS011;43675;50.030;21.952;2023-05-07T02:03:34;37.60;;;32.30;;
57846;SDS011;43675;50.030;21.952;2023-05-07T02:06:01;37.00;;;33.10;;
57846;SDS011;43675;50.030;21.952;2023-05-07T02:08:28;38.40;;;33.30;;
57846;SDS011;43675;50.030;21.952;2023-05-07T02:10:54;36.70;;;32.60;;
57846;SDS011;43675;50.030;21.952;2023-05-07T02:13:21;37.00;;;32.20;;
57846;SDS011;43675;50.030;21.952;2023-05-07T02:15:47;58.00;;;36.10;;
57846;SDS011;43675;50.030;21.952;2023-05-07T02:18:14;39.10;;;34.70;;
57846;SDS011;43675;50.030;21.952;2023-05-07T02:20:42;40.40;;;34.90;;
57846;SDS011;43675;50.030;21.952;2023-05-07T02:23:09;40.70;;;34.60;;
57846;SDS011;43675;50.030;21.952;2023-05-07T02:25:35;42.90;;;34.90;;
57846;SDS011;43675;50.030;21.952;2023-05-07T02:28:02;48.60;;;35.20;;
57846;SDS011;43675;50.030;21.952;2023-05-07T02:30:29;40.30;;;34.10;;
57846;SDS011;43675;50.030;21.952;2023-05-07T02:32:55;39.90;;;34.30;;
57846;SDS011;43675;50.030;21.952;2023-05-07T02:35:23;36.80;;;31.80;;
57846;SDS011;43675;50.030;21.952;2023-05-07T02:37:50;36.70;;;31.70;;
57846;SDS011;43675;50.030;21.952;2023-05-07T02:40:17;34.50;;;30.50;;
57846;SDS011;43675;50.030;21.952;2023-05-07T02:42:44;37.30;;;30.10;;
57846;SDS011;43675;50.030;21.952;2023-05-07T02:45:10;32.70;;;29.40;;
57846;SDS011;43675;50.030;21.952;2023-05-07T02:47:37;32.90;;;28.70;;
57846;SDS011;43675;50.030;21.952;2023-05-07T02:50:04;33.20;;;29.60;;
57846;SDS011;43675;50.030;21.952;2023-05-07T02:52:31;34.90;;;28.40;;
57846;SDS011;43675;50.030;21.952;2023-05-07T02:54:57;32.20;;;28.70;;
57846;SDS011;43675;50.030;21.952;2023-05-07T02:57:24;34.40;;;30.80;;
57846;SDS011;43675;50.030;21.952;2023-05-07T02:59:50;35.50;;;30.50;;
57846;SDS011;43675;50.030;21.952;2023-05-07T03:02:17;33.20;;;28.90;;
57846;SDS011;43675;50.030;21.952;2023-05-07T03:04:44;30.50;;;27.40;;
57846;SDS011;43675;50.030;21.952;2023-05-07T03:07:10;31.00;;;27.80;;
57846;SDS011;43675;50.030;21.952;2023-05-07T03:09:37;34.80;;;29.30;;
57846;SDS011;43675;50.030;21.952;2023-05-07T03:12:03;31.70;;;28.30;;
57846;SDS011;43675;50.030;21.952;2023-05-07T03:14:30;30.80;;;27.50;;
57846;SDS011;43675;50.030;21.952;2023-05-07T03:16:56;32.60;;;29.50;;
57846;SDS011;43675;50.030;21.952;2023-05-07T03:19:25;30.80;;;27.70;;
57846;SDS011;43675;50.030;21.952;2023-05-07T03:21:52;33.40;;;29.30;;
57846;SDS011;43675;50.030;21.952;2023-05-07T03:24:18;33.10;;;28.90;;
57846;SDS011;43675;50.030;21.952;2023-05-07T03:26:45;40.70;;;30.30;;
57846;SDS011;43675;50.030;21.952;2023-05-07T03:29:12;55.70;;;32.40;;
57846;SDS011;43675;50.030;21.952;2023-05-07T03:31:39;48.70;;;32.70;;
57846;SDS011;43675;50.030;21.952;2023-05-07T03:34:05;40.80;;;33.00;;
57846;SDS011;43675;50.030;21.952;2023-05-07T03:36:32;53.60;;;32.60;;
57846;SDS011;43675;50.030;21.952;2023-05-07T03:38:58;47.40;;;33.10;;
57846;SDS011;43675;50.030;21.952;2023-05-07T03:41:25;57.40;;;31.90;;
57846;SDS011;43675;50.030;21.952;2023-05-07T03:43:52;47.90;;;32.20;;
57846;SDS011;43675;50.030;21.952;2023-05-07T03:46:18;62.80;;;34.10;;
57846;SDS011;43675;50.030;21.952;2023-05-07T03:48:45;71.70;;;35.30;;
57846;SDS011;43675;50.030;21.952;2023-05-07T03:51:11;59.00;;;36.00;;
57846;SDS011;43675;50.030;21.952;2023-05-07T03:53:38;79.10;;;36.40;;
57846;SDS011;43675;50.030;21.952;2023-05-07T03:56:05;67.00;;;38.80;;
57846;SDS011;43675;50.030;21.952;2023-05-07T03:58:31;79.50;;;39.70;;
57846;SDS011;43675;50.030;21.952;2023-05-07T04:00:58;71.40;;;42.90;;
57846;SDS011;43675;50.030;21.952;2023-05-07T04:03:25;80.30;;;44.20;;
57846;SDS011;43675;50.030;21.952;2023-05-07T04:05:51;94.90;;;44.20;;
57846;SDS011;43675;50.030;21.952;2023-05-07T04:08:18;84.30;;;46.20;;
57846;SDS011;43675;50.030;21.952;2023-05-07T04:10:44;82.40;;;44.40;;
57846;SDS011;43675;50.030;21.952;2023-05-07T04:13:11;87.80;;;47.30;;
57846;SDS011;43675;50.030;21.952;2023-05-07T04:15:38;102.00;;;47.20;;
57846;SDS011;43675;50.030;21.952;2023-05-07T04:18:04;86.00;;;47.60;;
57846;SDS011;43675;50.030;21.952;2023-05-07T04:20:33;100.70;;;48.60;;
57846;SDS011;43675;50.030;21.952;2023-05-07T04:23:00;89.20;;;47.80;;
57846;SDS011;43675;50.030;21.952;2023-05-07T04:25:28;109.30;;;50.40;;
57846;SDS011;43675;50.030;21.952;2023-05-07T04:27:55;84.00;;;48.60;;
57846;SDS011;43675;50.030;21.952;2023-05-07T04:30:21;84.40;;;48.90;;
57846;SDS011;43675;50.030;21.952;2023-05-07T04:32:48;98.00;;;51.40;;
57846;SDS011;43675;50.030;21.952;2023-05-07T04:35:14;90.40;;;50.30;;
57846;SDS011;43675;50.030;21.952;2023-05-07T04:37:41;77.70;;;50.10;;
57846;SDS011;43675;50.030;21.952;2023-05-07T04:40:08;79.80;;;51.30;;
57846;SDS011;43675;50.030;21.952;2023-05-07T04:42:35;93.30;;;49.30;;
57846;SDS011;43675;50.030;21.952;2023-05-07T04:45:02;81.80;;;48.50;;
57846;SDS011;43675;50.030;21.952;2023-05-07T04:47:29;81.30;;;47.50;;
57846;SDS011;43675;50.030;21.952;2023-05-07T04:49:56;104.20;;;47.60;;
57846;SDS011;43675;50.030;21.952;2023-05-07T04:52:24;80.40;;;48.30;;
57846;SDS011;43675;50.030;21.952;2023-05-07T04:54:51;100.40;;;50.60;;
57846;SDS011;43675;50.030;21.952;2023-05-07T04:57:17;81.70;;;49.20;;
57846;SDS011;43675;50.030;21.952;2023-05-07T04:59:44;76.80;;;48.80;;
57846;SDS011;43675;50.030;21.952;2023-05-07T05:02:10;67.40;;;47.40;;
57846;SDS011;43675;50.030;21.952;2023-05-07T05:04:37;61.90;;;42.90;;
57846;SDS011;43675;50.030;21.952;2023-05-07T05:07:04;59.90;;;40.70;;
57846;SDS011;43675;50.030;21.952;2023-05-07T05:09:30;55.10;;;37.80;;
57846;SDS011;43675;50.030;21.952;2023-05-07T05:11:57;54.60;;;36.70;;
57846;SDS011;43675;50.030;21.952;2023-05-07T05:14:23;45.80;;;35.10;;
57846;SDS011;43675;50.030;21.952;2023-05-07T05:16:50;50.80;;;34.30;;
57846;SDS011;43675;50.030;21.952;2023-05-07T05:19:17;44.50;;;34.50;;
57846;SDS011;43675;50.030;21.952;2023-05-07T05:21:44;46.60;;;34.90;;
57846;SDS011;43675;50.030;21.952;2023-05-07T05:24:10;43.90;;;33.80;;
57846;SDS011;43675;50.030;21.952;2023-05-07T05:26:37;41.10;;;33.80;;
57846;SDS011;43675;50.030;21.952;2023-05-07T05:29:03;41.30;;;32.80;;
57846;SDS011;43675;50.030;21.952;2023-05-07T05:31:30;34.50;;;30.40;;
57846;SDS011;43675;50.030;21.952;2023-05-07T05:33:56;37.60;;;31.50;;
57846;SDS011;43675;50.030;21.952;2023-05-07T05:36:23;36.60;;;29.40;;
57846;SDS011;43675;50.030;21.952;2023-05-07T05:38:50;36.20;;;29.80;;
57846;SDS011;43675;50.030;21.952;2023-05-07T05:41:16;32.90;;;29.10;;
57846;SDS011;43675;50.030;21.952;2023-05-07T05:43:43;32.20;;;28.80;;
57846;SDS011;43675;50.030;21.952;2023-05-07T05:46:09;37.20;;;29.20;;
57846;SDS011;43675;50.030;21.952;2023-05-07T05:48:36;35.50;;;30.50;;
57846;SDS011;43675;50.030;21.952;2023-05-07T05:51:02;36.20;;;31.30;;
57846;SDS011;43675;50.030;21.952;2023-05-07T05:53:29;39.10;;;32.20;;
57846;SDS011;43675;50.030;21.952;2023-05-07T05:55:55;37.40;;;31.80;;
57846;SDS011;43675;50.030;21.952;2023-05-07T05:58:22;34.10;;;29.90;;
57846;SDS011;43675;50.030;21.952;2023-05-07T06:00:49;32.30;;;29.10;;
57846;SDS011;43675;50.030;21.952;2023-05-07T06:03:15;31.70;;;28.30;;
57846;SDS011;43675;50.030;21.952;2023-05-07T06:05:42;33.40;;;27.70;;
57846;SDS011;43675;50.030;21.952;2023-05-07T06:08:08;30.20;;;26.90;;
57846;SDS011;43675;50.030;21.952;2023-05-07T06:10:36;28.80;;;25.70;;
57846;SDS011;43675;50.030;21.952;2023-05-07T06:13:03;27.80;;;25.00;;
57846;SDS011;43675;50.030;21.952;2023-05-07T06:15:29;30.20;;;27.00;;
57846;SDS011;43675;50.030;21.952;2023-05-07T06:17:56;28.80;;;25.70;;
57846;SDS011;43675;50.030;21.952;2023-05-07T06:20:23;28.80;;;26.00;;
57846;SDS011;43675;50.030;21.952;2023-05-07T06:22:50;26.80;;;23.90;;
57846;SDS011;43675;50.030;21.952;2023-05-07T06:25:16;27.60;;;25.10;;
57846;SDS011;43675;50.030;21.952;2023-05-07T06:27:43;27.20;;;24.30;;
57846;SDS011;43675;50.030;21.952;2023-05-07T06:30:09;25.60;;;23.20;;
57846;SDS011;43675;50.030;21.952;2023-05-07T06:32:36;25.50;;;22.90;;
57846;SDS011;43675;50.030;21.952;2023-05-07T06:35:03;25.90;;;22.90;;
57846;SDS011;43675;50.030;21.952;2023-05-07T06:37:30;24.60;;;22.30;;
57846;SDS011;43675;50.030;21.952;2023-05-07T06:39:56;24.30;;;22.00;;
57846;SDS011;43675;50.030;21.952;2023-05-07T06:42:23;25.00;;;21.60;;
57846;SDS011;43675;50.030;21.952;2023-05-07T06:44:49;23.40;;;21.30;;
57846;SDS011;43675;50.030;21.952;2023-05-07T06:47:16;23.50;;;21.10;;
57846;SDS011;43675;50.030;21.952;2023-05-07T06:49:42;25.30;;;21.30;;
57846;SDS011;43675;50.030;21.952;2023-05-07T06:52:09;24.70;;;22.30;;
57846;SDS011;43675;50.030;21.952;2023-05-07T06:54:35;23.70;;;21.20;;
57846;SDS011;43675;50.030;21.952;2023-05-07T06:57:02;23.30;;;20.90;;
57846;SDS011;43675;50.030;21.952;2023-05-07T06:59:28;24.50;;;21.90;;
57846;SDS011;43675;50.030;21.952;2023-05-07T07:01:55;23.30;;;21.00;;
57846;SDS011;43675;50.030;21.952;2023-05-07T07:04:21;23.60;;;21.20;;
57846;SDS011;43675;50.030;21.952;2023-05-07T07:06:48;24.20;;;21.60;;
57846;SDS011;43675;50.030;21.952;2023-05-07T07:09:14;25.00;;;22.50;;
57846;SDS011;43675;50.030;21.952;2023-05-07T07:11:41;25.90;;;23.00;;
57846;SDS011;43675;50.030;21.952;2023-05-07T07:14:07;25.50;;;21.70;;
57846;SDS011;43675;50.030;21.952;2023-05-07T07:16:34;25.90;;;20.90;;
57846;SDS011;43675;50.030;21.952;2023-05-07T07:19:00;25.40;;;22.10;;
57846;SDS011;43675;50.030;21.952;2023-05-07T07:21:27;25.60;;;21.90;;
57846;SDS011;43675;50.030;21.952;2023-05-07T07:23:53;24.60;;;22.10;;
57846;SDS011;43675;50.030;21.952;2023-05-07T07:26:20;24.60;;;22.10;;
57846;SDS011;43675;50.030;21.952;2023-05-07T07:28:46;24.80;;;22.30;;
57846;SDS011;43675;50.030;21.952;2023-05-07T07:31:13;23.90;;;21.40;;
57846;SDS011;43675;50.030;21.952;2023-05-07T07:33:40;23.10;;;20.80;;
57846;SDS011;43675;50.030;21.952;2023-05-07T07:36:07;24.00;;;21.80;;
57846;SDS011;43675;50.030;21.952;2023-05-07T07:38:34;25.50;;;22.00;;
57846;SDS011;43675;50.030;21.952;2023-05-07T07:41:00;24.70;;;22.20;;
57846;SDS011;43675;50.030;21.952;2023-05-07T07:43:27;25.10;;;22.50;;
57846;SDS011;43675;50.030;21.952;2023-05-07T07:45:54;24.70;;;22.10;;
57846;SDS011;43675;50.030;21.952;2023-05-07T07:48:20;25.50;;;22.90;;
57846;SDS011;43675;50.030;21.952;2023-05-07T07:50:50;24.50;;;22.20;;
57846;SDS011;43675;50.030;21.952;2023-05-07T07:53:17;26.80;;;22.50;;
57846;SDS011;43675;50.030;21.952;2023-05-07T07:55:44;23.50;;;21.30;;
57846;SDS011;43675;50.030;21.952;2023-05-07T07:58:11;23.70;;;21.30;;
57846;SDS011;43675;50.030;21.952;2023-05-07T08:00:38;23.30;;;20.90;;
57846;SDS011;43675;50.030;21.952;2023-05-07T08:03:05;22.50;;;20.20;;
57846;SDS011;43675;50.030;21.952;2023-05-07T08:05:31;22.60;;;20.50;;
57846;SDS011;43675;50.030;21.952;2023-05-07T08:07:58;22.60;;;20.60;;
57846;SDS011;43675;50.030;21.952;2023-05-07T08:10:25;23.30;;;21.00;;
57846;SDS011;43675;50.030;21.952;2023-05-07T08:12:51;24.00;;;21.70;;
57846;SDS011;43675;50.030;21.952;2023-05-07T08:15:18;22.10;;;19.80;;
57846;SDS011;43675;50.030;21.952;2023-05-07T08:17:45;22.00;;;19.90;;
57846;SDS011;43675;50.030;21.952;2023-05-07T08:20:11;23.00;;;20.00;;
57846;SDS011;43675;50.030;21.952;2023-05-07T08:22:38;22.60;;;20.50;;
57846;SDS011;43675;50.030;21.952;2023-05-07T08:25:05;23.00;;;20.50;;
57846;SDS011;43675;50.030;21.952;2023-05-07T08:27:31;22.10;;;20.00;;
57846;SDS011;43675;50.030;21.952;2023-05-07T08:29:58;22.30;;;20.10;;
57846;SDS011;43675;50.030;21.952;2023-05-07T08:32:25;20.90;;;19.10;;
57846;SDS011;43675;50.030;21.952;2023-05-07T08:34:51;22.40;;;20.30;;
57846;SDS011;43675;50.030;21.952;2023-05-07T08:37:18;21.80;;;19.70;;
57846;SDS011;43675;50.030;21.952;2023-05-07T08:39:44;22.30;;;20.00;;
57846;SDS011;43675;50.030;21.952;2023-05-07T08:42:11;22.50;;;20.30;;
57846;SDS011;43675;50.030;21.952;2023-05-07T08:44:40;21.90;;;20.10;;
57846;SDS011;43675;50.030;21.952;2023-05-07T08:47:11;22.20;;;20.10;;
57846;SDS011;43675;50.030;21.952;2023-05-07T08:49:37;21.50;;;19.50;;
57846;SDS011;43675;50.030;21.952;2023-05-07T08:52:04;22.90;;;20.70;;
57846;SDS011;43675;50.030;21.952;2023-05-07T08:54:31;21.40;;;19.30;;
57846;SDS011;43675;50.030;21.952;2023-05-07T08:56:59;22.20;;;20.10;;
57846;SDS011;43675;50.030;21.952;2023-05-07T08:59:26;23.70;;;20.30;;
57846;SDS011;43675;50.030;21.952;2023-05-07T09:01:53;21.20;;;19.30;;
57846;SDS011;43675;50.030;21.952;2023-05-07T09:04:20;22.40;;;20.30;;
57846;SDS011;43675;50.030;21.952;2023-05-07T09:06:46;24.00;;;20.50;;
57846;SDS011;43675;50.030;21.952;2023-05-07T09:09:19;21.30;;;19.20;;
57846;SDS011;43675;50.030;21.952;2023-05-07T09:11:48;20.60;;;18.80;;
57846;SDS011;43675;50.030;21.952;2023-05-07T09:14:14;21.50;;;19.50;;
57846;SDS011;43675;50.030;21.952;2023-05-07T09:16:41;21.40;;;19.40;;
57846;SDS011;43675;50.030;21.952;2023-05-07T09:19:07;22.10;;;20.20;;
57846;SDS011;43675;50.030;21.952;2023-05-07T09:21:34;23.50;;;21.30;;
57846;SDS011;43675;50.030;21.952;2023-05-07T09:24:01;22.90;;;20.90;;
57846;SDS011;43675;50.030;21.952;2023-05-07T09:26:28;22.60;;;20.40;;
57846;SDS011;43675;50.030;21.952;2023-05-07T09:28:54;22.50;;;20.60;;
57846;SDS011;43675;50.030;21.952;2023-05-07T09:31:21;22.50;;;20.40;;
57846;SDS011;43675;50.030;21.952;2023-05-07T09:33:48;22.40;;;20.30;;
57846;SDS011;43675;50.030;21.952;2023-05-07T09:36:15;25.90;;;19.60;;
57846;SDS011;43675;50.030;21.952;2023-05-07T09:38:42;22.70;;;20.70;;
57846;SDS011;43675;50.030;21.952;2023-05-07T09:41:10;22.20;;;20.20;;
57846;SDS011;43675;50.030;21.952;2023-05-07T09:43:38;22.70;;;20.70;;
57846;SDS011;43675;50.030;21.952;2023-05-07T09:48:41;21.90;;;19.80;;
57846;SDS011;43675;50.030;21.952;2023-05-07T09:51:24;22.60;;;20.50;;
57846;SDS011;43675;50.030;21.952;2023-05-07T09:53:56;21.20;;;19.50;;
57846;SDS011;43675;50.030;21.952;2023-05-07T09:56:23;22.70;;;20.80;;
57846;SDS011;43675;50.030;21.952;2023-05-07T09:58:52;22.90;;;20.70;;
57846;SDS011;43675;50.030;21.952;2023-05-07T10:01:20;22.20;;;20.10;;
57846;SDS011;43675;50.030;21.952;2023-05-07T10:03:47;21.10;;;19.20;;
57846;SDS011;43675;50.030;21.952;2023-05-07T10:06:15;22.80;;;20.70;;
57846;SDS011;43675;50.030;21.952;2023-05-07T10:08:43;22.10;;;20.20;;
57846;SDS011;43675;50.030;21.952;2023-05-07T10:11:10;20.70;;;18.90;;
57846;SDS011;43675;50.030;21.952;2023-05-07T10:13:37;21.30;;;19.20;;
57846;SDS011;43675;50.030;21.952;2023-05-07T10:16:04;21.80;;;19.80;;
57846;SDS011;43675;50.030;21.952;2023-05-07T10:18:33;22.00;;;20.10;;
57846;SDS011;43675;50.030;21.952;2023-05-07T10:21:19;22.20;;;20.30;;
57846;SDS011;43675;50.030;21.952;2023-05-07T10:23:49;21.60;;;19.50;;
57846;SDS011;43675;50.030;21.952;2023-05-07T10:28:47;22.40;;;20.30;;
57846;SDS011;43675;50.030;21.952;2023-05-07T10:34:02;22.50;;;20.20;;
57846;SDS011;43675;50.030;21.952;2023-05-07T10:36:34;22.00;;;19.90;;
57846;SDS011;43675;50.030;21.952;2023-05-07T10:39:02;21.20;;;19.30;;
57846;SDS011;43675;50.030;21.952;2023-05-07T10:41:29;23.10;;;21.00;;
57846;SDS011;43675;50.030;21.952;2023-05-07T10:43:55;21.50;;;19.70;;
57846;SDS011;43675;50.030;21.952;2023-05-07T10:46:22;22.00;;;20.10;;
57846;SDS011;43675;50.030;21.952;2023-05-07T10:51:27;23.00;;;20.60;;
57846;SDS011;43675;50.030;21.952;2023-05-07T10:56:37;21.90;;;19.90;;
57846;SDS011;43675;50.030;21.952;2023-05-07T11:01:57;21.40;;;19.50;;
57846;SDS011;43675;50.030;21.952;2023-05-07T11:04:24;21.60;;;19.50;;
57846;SDS011;43675;50.030;21.952;2023-05-07T11:15:08;22.20;;;20.10;;
57846;SDS011;43675;50.030;21.952;2023-05-07T11:17:55;22.10;;;19.90;;
57846;SDS011;43675;50.030;21.952;2023-05-07T11:26:02;21.70;;;19.60;;
57846;SDS011;43675;50.030;21.952;2023-05-07T11:28:30;20.40;;;18.50;;
57846;SDS011;43675;50.030;21.952;2023-05-07T11:31:02;21.90;;;19.80;;
57846;SDS011;43675;50.030;21.952;2023-05-07T11:33:29;21.30;;;19.40;;
57846;SDS011;43675;50.030;21.952;2023-05-07T11:35:57;20.80;;;19.10;;
57846;SDS011;43675;50.030;21.952;2023-05-07T11:38:24;20.60;;;19.00;;
57846;SDS011;43675;50.030;21.952;2023-05-07T11:40:52;21.20;;;19.50;;
57846;SDS011;43675;50.030;21.952;2023-05-07T11:43:19;21.70;;;19.70;;
57846;SDS011;43675;50.030;21.952;2023-05-07T11:45:46;21.40;;;19.60;;
57846;SDS011;43675;50.030;21.952;2023-05-07T11:48:14;21.10;;;19.20;;
57846;SDS011;43675;50.030;21.952;2023-05-07T11:50:51;22.00;;;20.00;;
57846;SDS011;43675;50.030;21.952;2023-05-07T11:53:35;21.60;;;19.70;;
57846;SDS011;43675;50.030;21.952;2023-05-07T11:56:13;20.80;;;19.00;;
57846;SDS011;43675;50.030;21.952;2023-05-07T11:58:41;21.20;;;19.50;;
57846;SDS011;43675;50.030;21.952;2023-05-07T12:01:09;20.70;;;18.90;;
57846;SDS011;43675;50.030;21.952;2023-05-07T12:03:37;21.40;;;19.20;;
57846;SDS011;43675;50.030;21.952;2023-05-07T12:06:07;21.80;;;19.80;;
57846;SDS011;43675;50.030;21.952;2023-05-07T12:08:35;21.20;;;19.50;;
57846;SDS011;43675;50.030;21.952;2023-05-07T12:11:02;20.80;;;18.90;;
57846;SDS011;43675;50.030;21.952;2023-05-07T12:13:29;20.00;;;18.30;;
57846;SDS011;43675;50.030;21.952;2023-05-07T12:15:56;20.80;;;19.00;;
57846;SDS011;43675;50.030;21.952;2023-05-07T12:18:23;19.90;;;18.00;;
57846;SDS011;43675;50.030;21.952;2023-05-07T12:20:50;19.80;;;18.20;;
57846;SDS011;43675;50.030;21.952;2023-05-07T12:23:17;20.00;;;18.30;;
57846;SDS011;43675;50.030;21.952;2023-05-07T12:25:44;20.00;;;18.00;;
57846;SDS011;43675;50.030;21.952;2023-05-07T12:28:12;20.20;;;18.40;;
57846;SDS011;43675;50.030;21.952;2023-05-07T12:30:40;19.80;;;17.90;;
57846;SDS011;43675;50.030;21.952;2023-05-07T12:33:08;20.30;;;18.40;;
57846;SDS011;43675;50.030;21.952;2023-05-07T12:35:39;20.40;;;18.40;;
57846;SDS011;43675;50.030;21.952;2023-05-07T12:38:10;20.10;;;18.40;;
57846;SDS011;43675;50.030;21.952;2023-05-07T12:40:45;20.00;;;18.40;;
57846;SDS011;43675;50.030;21.952;2023-05-07T12:43:26;21.20;;;19.30;;
57846;SDS011;43675;50.030;21.952;2023-05-07T12:45:54;20.20;;;18.20;;
57846;SDS011;43675;50.030;21.952;2023-05-07T12:48:23;19.30;;;17.70;;
57846;SDS011;43675;50.030;21.952;2023-05-07T12:50:50;19.70;;;18.00;;
57846;SDS011;43675;50.030;21.952;2023-05-07T12:53:19;20.40;;;18.50;;
57846;SDS011;43675;50.030;21.952;2023-05-07T12:55:49;19.50;;;17.80;;
57846;SDS011;43675;50.030;21.952;2023-05-07T12:58:17;19.70;;;18.20;;
57846;SDS011;43675;50.030;21.952;2023-05-07T13:00:47;19.80;;;18.30;;
57846;SDS011;43675;50.030;21.952;2023-05-07T13:03:25;19.80;;;18.10;;
57846;SDS011;43675;50.030;21.952;2023-05-07T13:06:03;18.00;;;16.60;;
57846;SDS011;43675;50.030;21.952;2023-05-07T13:08:35;18.90;;;17.20;;
57846;SDS011;43675;50.030;21.952;2023-05-07T13:11:03;19.10;;;17.60;;
57846;SDS011;43675;50.030;21.952;2023-05-07T13:13:31;19.30;;;17.70;;
57846;SDS011;43675;50.030;21.952;2023-05-07T13:15:58;18.10;;;16.70;;
57846;SDS011;43675;50.030;21.952;2023-05-07T13:18:25;19.40;;;17.70;;
57846;SDS011;43675;50.030;21.952;2023-05-07T13:20:55;18.70;;;17.20;;
57846;SDS011;43675;50.030;21.952;2023-05-07T13:23:22;19.60;;;17.90;;
57846;SDS011;43675;50.030;21.952;2023-05-07T13:25:49;19.90;;;18.20;;
57846;SDS011;43675;50.030;21.952;2023-05-07T13:28:16;20.40;;;18.40;;
57846;SDS011;43675;50.030;21.952;2023-05-07T13:30:42;19.60;;;17.90;;
57846;SDS011;43675;50.030;21.952;2023-05-07T13:33:09;19.80;;;18.10;;
57846;SDS011;43675;50.030;21.952;2023-05-07T13:35:36;19.50;;;17.90;;
57846;SDS011;43675;50.030;21.952;2023-05-07T13:38:02;19.20;;;17.50;;
57846;SDS011;43675;50.030;21.952;2023-05-07T13:40:29;18.70;;;17.30;;
57846;SDS011;43675;50.030;21.952;2023-05-07T13:42:57;18.90;;;17.30;;
57846;SDS011;43675;50.030;21.952;2023-05-07T13:45:24;18.50;;;16.90;;
57846;SDS011;43675;50.030;21.952;2023-05-07T13:47:51;18.70;;;17.10;;
57846;SDS011;43675;50.030;21.952;2023-05-07T13:50:17;18.00;;;16.60;;
57846;SDS011;43675;50.030;21.952;2023-05-07T13:52:44;18.00;;;16.50;;
57846;SDS011;43675;50.030;21.952;2023-05-07T13:55:11;17.80;;;16.40;;
57846;SDS011;43675;50.030;21.952;2023-05-07T13:57:37;17.60;;;16.10;;
57846;SDS011;43675;50.030;21.952;2023-05-07T14:00:04;17.00;;;15.50;;
57846;SDS011;43675;50.030;21.952;2023-05-07T14:02:32;17.60;;;16.10;;
57846;SDS011;43675;50.030;21.952;2023-05-07T14:04:58;16.90;;;15.50;;
57846;SDS011;43675;50.030;21.952;2023-05-07T14:07:25;16.90;;;15.60;;
57846;SDS011;43675;50.030;21.952;2023-05-07T14:09:51;19.90;;;16.40;;
57846;SDS011;43675;50.030;21.952;2023-05-07T14:12:18;18.30;;;16.70;;
57846;SDS011;43675;50.030;21.952;2023-05-07T14:14:44;17.60;;;16.20;;
57846;SDS011;43675;50.030;21.952;2023-05-07T14:17:11;17.50;;;15.90;;
57846;SDS011;43675;50.030;21.952;2023-05-07T14:19:37;17.60;;;16.10;;
57846;SDS011;43675;50.030;21.952;2023-05-07T14:22:04;17.50;;;16.10;;
57846;SDS011;43675;50.030;21.952;2023-05-07T14:24:30;17.20;;;15.80;;
57846;SDS011;43675;50.030;21.952;2023-05-07T14:26:57;16.80;;;15.40;;
57846;SDS011;43675;50.030;21.952;2023-05-07T14:29:23;17.30;;;15.90;;
57846;SDS011;43675;50.030;21.952;2023-05-07T14:31:50;17.70;;;16.10;;
57846;SDS011;43675;50.030;21.952;2023-05-07T14:34:16;16.70;;;15.30;;
57846;SDS011;43675;50.030;21.952;2023-05-07T14:36:42;17.00;;;15.60;;
57846;SDS011;43675;50.030;21.952;2023-05-07T14:39:09;17.90;;;15.70;;